Saint-Lambert, Canada
Current Conditions -  °F | °C
As of 9:00 PM on Friday 21 Nov 2014 (Local Time) from CYHU Reporting Station
Overcast Overcast  
Wind Chill:   Ceiling: 5000
Heat Index: 21°   Visibility: 9mi
Dew Point:   Wind: 13mph
Humidity: 58%   Direction: 240°WSW
Pressure: 30.34"   Gusts: NA
Location:  45.48°N, 73.5°W
Report Text: CYHU 220200Z AUTO 24011KT 9SM OVC050 M06/M13 A3034 RMK SLP275
Loading
Personal Weather Stations






























Interactive Weather Map New forecast layout! Learn more

10-Day Weather Forecast

Advertisements
Track Severe Weather on mobile